createdAt,value
2022-11-28T00:02:47.853Z,4.65
2022-11-28T00:05:49.754Z,4.90
2022-11-28T00:08:52.096Z,4.60
2022-11-28T00:11:56.950Z,4.38
2022-11-28T00:14:59.225Z,3.65
2022-11-28T00:18:01.318Z,3.78
2022-11-28T00:21:08.135Z,3.83
2022-11-28T00:24:11.337Z,3.95
2022-11-28T00:27:13.147Z,3.55
2022-11-28T00:30:15.118Z,3.83
2022-11-28T00:33:17.032Z,3.08
2022-11-28T00:36:19.538Z,3.50
2022-11-28T00:39:21.192Z,3.38
2022-11-28T00:42:22.970Z,3.00
2022-11-28T00:45:24.708Z,3.63
2022-11-28T00:48:26.902Z,3.53
2022-11-28T00:51:31.284Z,8.25
2022-11-28T00:54:32.996Z,7.47
2022-11-28T00:57:35.072Z,8.82
2022-11-28T01:00:37.465Z,7.55
2022-11-28T01:03:40.000Z,6.22
2022-11-28T01:06:44.877Z,7.55
2022-11-28T01:09:46.654Z,8.13
2022-11-28T01:12:48.412Z,9.35
2022-11-28T01:15:50.267Z,8.93
2022-11-28T01:18:52.033Z,5.53
2022-11-28T01:21:53.788Z,10.02
2022-11-28T01:24:55.492Z,6.65
2022-11-28T01:27:57.197Z,7.13
2022-11-28T01:31:06.381Z,7.03
2022-11-28T01:34:08.186Z,8.45
2022-11-28T01:37:09.922Z,6.57
2022-11-28T01:40:13.775Z,6.88
2022-11-28T01:43:15.779Z,10.35
2022-11-28T01:46:17.606Z,8.95
2022-11-28T01:49:35.283Z,7.78
2022-11-28T01:55:49.241Z,6.60
2022-11-28T01:58:54.453Z,7.53
2022-11-28T02:01:57.105Z,5.97
2022-11-28T02:04:59.433Z,7.05
2022-11-28T02:08:02.012Z,5.63
2022-11-28T02:11:09.755Z,7.78
2022-11-28T02:14:26.466Z,7.70
2022-11-28T02:18:02.335Z,7.22
2022-11-28T02:21:10.034Z,8.20
2022-11-28T02:24:33.491Z,5.90
2022-11-28T02:27:47.214Z,4.90
2022-11-28T02:30:58.974Z,5.05
2022-11-28T02:34:05.021Z,4.00
2022-11-28T02:37:34.310Z,3.40
2022-11-28T02:41:33.298Z,4.00
2022-11-28T02:44:42.756Z,5.25
2022-11-28T02:47:53.272Z,4.60
2022-11-28T02:51:31.859Z,6.35
2022-11-28T02:57:38.088Z,4.63
2022-11-28T03:00:43.835Z,6.60
2022-11-28T03:03:56.105Z,5.60
2022-11-28T03:07:13.216Z,7.07
2022-11-28T03:10:36.528Z,6.90
2022-11-28T03:13:52.746Z,5.55
2022-11-28T03:16:54.730Z,5.78
2022-11-28T03:19:56.420Z,6.20
2022-11-28T03:23:07.401Z,5.40
2022-11-28T03:26:30.900Z,5.50
2022-11-28T03:29:37.785Z,4.18
2022-11-28T03:32:40.620Z,4.68
2022-11-28T03:35:48.956Z,4.78
2022-11-28T03:38:54.622Z,4.40
2022-11-28T03:42:31.816Z,4.95
2022-11-28T03:45:38.271Z,5.50
2022-11-28T03:48:44.213Z,4.97
2022-11-28T03:51:51.946Z,6.18
2022-11-28T03:54:57.880Z,6.10
2022-11-28T03:58:07.925Z,7.35
2022-11-28T04:01:21.882Z,5.75
2022-11-28T04:04:56.029Z,6.97
2022-11-28T04:08:11.213Z,6.40
2022-11-28T04:11:21.149Z,6.35
2022-11-28T04:14:35.565Z,6.82
2022-11-28T04:18:08.134Z,5.68
2022-11-28T04:21:19.849Z,4.95
2022-11-28T04:24:27.187Z,5.75
2022-11-28T04:27:34.178Z,5.38
2022-11-28T04:30:37.147Z,5.60
2022-11-28T04:33:44.062Z,5.50
2022-11-28T04:36:46.215Z,5.35
2022-11-28T04:39:51.847Z,4.00
2022-11-28T04:43:02.704Z,5.75
2022-11-28T04:46:30.436Z,5.13
2022-11-28T04:49:32.785Z,4.47
2022-11-28T04:53:00.116Z,4.03
2022-11-28T04:56:11.888Z,5.03
2022-11-28T04:59:15.977Z,4.45
2022-11-28T05:02:20.672Z,4.07
2022-11-28T05:05:26.868Z,5.57
2022-11-28T05:08:33.848Z,4.88
2022-11-28T05:11:37.967Z,6.18
2022-11-28T05:14:46.255Z,4.80
2022-11-28T05:17:49.428Z,4.93
2022-11-28T05:20:59.284Z,5.78
2022-11-28T05:24:02.200Z,6.00
2022-11-28T05:27:04.152Z,4.72
2022-11-28T05:30:07.075Z,5.60
2022-11-28T05:33:08.770Z,5.30
2022-11-28T05:36:13.526Z,4.05
2022-11-28T05:39:15.604Z,5.82
2022-11-28T05:42:17.849Z,4.35
2022-11-28T05:45:22.132Z,4.90
2022-11-28T05:48:24.576Z,5.45
2022-11-28T05:51:26.712Z,6.25
2022-11-28T05:54:28.678Z,4.82
2022-11-28T05:57:32.171Z,6.10
2022-11-28T06:00:33.922Z,4.90
2022-11-28T06:03:35.656Z,4.05
2022-11-28T06:06:37.754Z,5.68
2022-11-28T06:09:39.515Z,4.80
2022-11-28T06:12:41.499Z,4.43
2022-11-28T06:15:45.100Z,6.03
2022-11-28T06:18:47.097Z,4.72
2022-11-28T06:21:50.317Z,4.68
2022-11-28T06:24:52.052Z,5.70
2022-11-28T06:27:53.866Z,5.80
2022-11-28T06:30:55.608Z,3.65
2022-11-28T06:33:58.318Z,4.35
2022-11-28T06:37:00.330Z,5.05
2022-11-28T06:40:02.165Z,5.35
2022-11-28T06:43:03.955Z,8.00
2022-11-28T06:46:06.454Z,6.15
2022-11-28T06:49:11.638Z,5.72
2022-11-28T06:52:13.341Z,4.20
2022-11-28T06:55:15.208Z,5.45
2022-11-28T06:58:17.038Z,5.35
2022-11-28T07:01:21.311Z,4.40
2022-11-28T07:04:23.596Z,4.22
2022-11-28T07:07:25.536Z,4.47
2022-11-28T07:10:28.285Z,5.28
2022-11-28T07:13:30.136Z,6.70
2022-11-28T07:16:33.540Z,4.32
2022-11-28T07:19:35.522Z,5.03
2022-11-28T07:22:37.318Z,4.40
2022-11-28T07:25:41.263Z,4.15
2022-11-28T07:28:43.941Z,4.70
2022-11-28T07:31:45.980Z,4.38
2022-11-28T07:34:50.239Z,4.57
2022-11-28T07:37:52.223Z,5.10
2022-11-28T07:40:54.013Z,4.38
2022-11-28T07:43:58.428Z,5.55
2022-11-28T07:47:00.438Z,4.55
2022-11-28T07:50:02.264Z,5.05
2022-11-28T07:53:07.212Z,4.68
2022-11-28T07:56:14.138Z,5.93
2022-11-28T07:59:16.374Z,5.90
2022-11-28T08:02:18.981Z,5.28
2022-11-28T08:05:20.764Z,4.57
2022-11-28T08:08:23.596Z,5.60
2022-11-28T08:11:26.167Z,4.53
2022-11-28T08:14:27.939Z,3.28
2022-11-28T08:17:29.663Z,3.80
2022-11-28T08:20:31.347Z,3.58
2022-11-28T08:23:34.585Z,3.13
2022-11-28T08:26:36.908Z,3.63
2022-11-28T08:29:38.656Z,4.38
2022-11-28T08:32:40.373Z,2.55
2022-11-28T08:39:03.236Z,3.17
2022-11-28T08:42:05.554Z,3.05
2022-11-28T08:45:08.034Z,3.78
2022-11-28T08:48:09.766Z,4.88
2022-11-28T08:51:14.360Z,5.75
2022-11-28T08:54:16.041Z,3.22
2022-11-28T08:57:18.136Z,3.47
2022-11-28T09:00:20.728Z,4.35
2022-11-28T09:03:22.773Z,2.97
2022-11-28T09:06:25.116Z,4.88
2022-11-28T09:09:32.584Z,3.50
2022-11-28T09:12:35.029Z,3.63
2022-11-28T09:15:40.649Z,3.33
2022-11-28T09:18:42.473Z,4.28
2022-11-28T09:21:44.367Z,3.42
2022-11-28T09:24:46.199Z,3.17
2022-11-28T09:27:48.150Z,2.63
2022-11-28T09:30:50.174Z,3.13
2022-11-28T09:33:51.992Z,3.38
2022-11-28T09:36:53.909Z,2.83
2022-11-28T09:40:12.583Z,5.28
2022-11-28T09:43:18.943Z,2.58
2022-11-28T09:46:33.113Z,3.80
2022-11-28T09:49:47.392Z,3.28
2022-11-28T09:53:01.731Z,3.72
2022-11-28T09:56:13.584Z,3.42
2022-11-28T09:59:27.563Z,3.10
2022-11-28T10:02:41.435Z,4.28
2022-11-28T10:06:16.630Z,4.35
2022-11-28T10:09:44.723Z,5.47
2022-11-28T10:13:05.260Z,3.47
2022-11-28T10:16:27.626Z,2.67
2022-11-28T10:20:12.442Z,4.03
2022-11-28T10:23:30.109Z,3.00
2022-11-28T10:26:37.044Z,4.15
2022-11-28T10:29:50.315Z,2.92
2022-11-28T10:33:12.615Z,3.35
2022-11-28T10:36:20.705Z,3.53
2022-11-28T10:39:25.876Z,3.47
2022-11-28T10:42:59.092Z,3.13
2022-11-28T10:46:06.925Z,3.45
2022-11-28T10:49:30.434Z,3.55
2022-11-28T10:52:37.792Z,4.00
2022-11-28T10:56:07.233Z,3.63
2022-11-28T10:59:45.697Z,2.83
2022-11-28T11:02:55.060Z,2.40
2022-11-28T11:05:56.923Z,2.92
2022-11-28T11:08:58.684Z,2.75
2022-11-28T11:12:01.238Z,2.40
2022-11-28T11:15:32.846Z,3.03
2022-11-28T11:18:43.971Z,2.90
2022-11-28T11:21:59.128Z,2.97
2022-11-28T11:25:14.095Z,3.63
2022-11-28T11:28:28.332Z,3.15
2022-11-28T11:31:33.161Z,4.28
2022-11-28T11:34:44.445Z,3.28
2022-11-28T11:38:21.556Z,3.17
2022-11-28T11:41:29.693Z,5.28
2022-11-28T11:44:34.973Z,4.43
2022-11-28T11:47:42.499Z,4.22
2022-11-28T11:50:53.788Z,3.60
2022-11-28T11:54:06.247Z,3.83
2022-11-28T11:57:32.016Z,4.03
2022-11-28T12:00:39.642Z,4.05
2022-11-28T12:03:50.292Z,3.25
2022-11-28T12:06:53.913Z,3.78
2022-11-28T12:09:58.558Z,4.20
2022-11-28T12:13:04.172Z,2.80
2022-11-28T12:16:09.216Z,5.05
2022-11-28T12:19:37.448Z,3.55
2022-11-28T12:25:55.138Z,3.80
2022-11-28T12:29:07.115Z,3.70
2022-11-28T12:32:18.162Z,4.40
2022-11-28T12:35:43.625Z,4.05
2022-11-28T12:39:04.651Z,4.20
2022-11-28T12:42:30.338Z,3.95
2022-11-28T12:45:41.172Z,4.88
2022-11-28T12:49:01.756Z,4.82
2022-11-28T12:52:29.478Z,4.45
2022-11-28T12:55:43.067Z,4.88
2022-11-28T12:59:24.350Z,3.75
2022-11-28T13:02:32.553Z,4.13
2022-11-28T13:06:08.548Z,4.00
2022-11-28T13:09:23.139Z,3.38
2022-11-28T13:12:35.873Z,2.83
2022-11-28T13:16:03.801Z,3.72
2022-11-28T13:19:44.402Z,4.13
2022-11-28T13:23:24.787Z,4.47
2022-11-28T13:26:36.227Z,4.10
2022-11-28T13:29:45.871Z,4.00
2022-11-28T13:32:59.009Z,3.28
2022-11-28T13:36:01.833Z,4.70
2022-11-28T13:39:14.043Z,3.33
2022-11-28T13:43:09.076Z,2.95
2022-11-28T13:49:30.869Z,3.30
2022-11-28T13:52:42.867Z,4.00
2022-11-28T13:55:51.079Z,3.30
2022-11-28T13:58:57.365Z,3.88
2022-11-28T14:02:04.930Z,4.33
2022-11-28T14:05:29.007Z,3.58
2022-11-28T14:08:38.479Z,3.45
2022-11-28T14:12:15.167Z,3.28
2022-11-28T14:15:27.165Z,3.85
2022-11-28T14:18:55.851Z,3.72
2022-11-28T14:21:54.559Z,3.38
2022-11-28T14:25:12.511Z,3.90
2022-11-28T14:28:27.731Z,3.90
2022-11-28T14:31:33.487Z,4.03
2022-11-28T14:34:38.036Z,3.33
2022-11-28T14:37:55.482Z,4.47
2022-11-28T14:40:57.762Z,3.95
2022-11-28T14:44:37.868Z,3.58
2022-11-28T14:47:42.864Z,3.97
2022-11-28T14:50:46.339Z,5.57
2022-11-28T14:53:49.328Z,3.80
2022-11-28T14:56:58.252Z,4.70
2022-11-28T15:00:17.451Z,3.60
2022-11-28T15:03:34.866Z,3.63
2022-11-28T15:06:38.553Z,4.13
2022-11-28T15:09:58.605Z,5.20
2022-11-28T15:14:19.453Z,3.13
2022-11-28T15:17:51.520Z,3.40
2022-11-28T15:21:01.307Z,4.32
2022-11-28T15:24:31.653Z,5.53
2022-11-28T15:27:34.440Z,4.05
2022-11-28T15:30:44.407Z,4.07
2022-11-28T15:33:46.516Z,3.58
2022-11-28T15:36:52.193Z,3.63
2022-11-28T15:39:54.562Z,3.45
2022-11-28T15:42:56.576Z,4.68
2022-11-28T15:46:01.322Z,3.17
2022-11-28T15:49:05.350Z,4.82
2022-11-28T15:52:07.967Z,4.13
2022-11-28T15:55:20.327Z,4.90
2022-11-28T15:58:31.078Z,4.45
2022-11-28T16:01:34.506Z,3.15
2022-11-28T16:04:39.097Z,6.53
2022-11-28T16:07:43.132Z,4.90
2022-11-28T16:10:45.739Z,3.90
2022-11-28T16:13:48.289Z,5.88
2022-11-28T16:16:50.571Z,5.10
2022-11-28T16:19:53.320Z,4.07
2022-11-28T16:22:59.835Z,4.18
2022-11-28T16:26:06.759Z,4.55
2022-11-28T16:29:35.278Z,4.07
2022-11-28T16:32:41.157Z,4.47
2022-11-28T16:35:43.370Z,3.50
2022-11-28T16:38:45.685Z,5.82
2022-11-28T16:41:54.991Z,5.15
2022-11-28T16:45:10.907Z,4.30
2022-11-28T16:48:21.964Z,5.72
2022-11-28T16:51:26.730Z,5.78
2022-11-28T16:54:30.739Z,4.35
2022-11-28T16:57:46.278Z,5.72
2022-11-28T17:00:58.411Z,5.78
2022-11-28T17:04:00.509Z,6.32
2022-11-28T17:07:05.356Z,6.13
2022-11-28T17:10:08.070Z,5.05
2022-11-28T17:13:10.624Z,4.70
2022-11-28T17:16:23.377Z,4.38
2022-11-28T17:19:25.823Z,4.43
2022-11-28T17:22:43.190Z,4.53
2022-11-28T17:25:45.320Z,4.30
2022-11-28T17:28:47.397Z,4.45
2022-11-28T17:31:49.606Z,4.63
2022-11-28T17:34:51.524Z,5.28
2022-11-28T17:37:53.450Z,5.30
2022-11-28T17:40:55.370Z,3.65
2022-11-28T17:43:57.547Z,4.03
2022-11-28T17:47:01.856Z,5.22
2022-11-28T17:50:04.416Z,4.65
2022-11-28T17:53:07.959Z,4.40
2022-11-28T17:56:12.587Z,4.43
2022-11-28T17:59:16.072Z,4.20
2022-11-28T18:02:18.364Z,5.85
2022-11-28T18:05:20.306Z,4.30
2022-11-28T18:08:22.703Z,4.55
2022-11-28T18:11:27.053Z,4.60
2022-11-28T18:14:36.623Z,4.20
2022-11-28T18:17:42.069Z,4.80
2022-11-28T18:20:44.213Z,4.93
2022-11-28T18:23:49.646Z,4.75
2022-11-28T18:26:53.029Z,5.20
2022-11-28T18:29:59.118Z,5.55
2022-11-28T18:33:01.776Z,4.95
2022-11-28T18:36:22.628Z,3.67
2022-11-28T18:39:24.978Z,5.10
2022-11-28T18:42:28.256Z,4.18
2022-11-28T18:45:30.916Z,3.70
2022-11-28T18:48:39.360Z,3.53
2022-11-28T18:51:42.789Z,4.65
2022-11-28T18:54:45.863Z,4.30
2022-11-28T18:57:48.621Z,4.35
2022-11-28T19:00:54.126Z,4.82
2022-11-28T19:04:02.529Z,4.28
2022-11-28T19:07:05.866Z,4.45
2022-11-28T19:10:09.658Z,4.95
2022-11-28T19:13:12.010Z,4.07
2022-11-28T19:16:19.820Z,4.18
2022-11-28T19:19:23.258Z,4.78
2022-11-28T19:22:26.523Z,4.85
2022-11-28T19:25:29.625Z,4.82
2022-11-28T19:28:32.304Z,4.93
2022-11-28T19:31:38.394Z,3.53
2022-11-28T19:34:42.799Z,4.18
2022-11-28T19:37:49.738Z,5.63
2022-11-28T19:40:53.046Z,4.72
2022-11-28T19:43:56.840Z,4.03
2022-11-28T19:47:02.630Z,4.20
2022-11-28T19:50:05.702Z,4.50
2022-11-28T19:53:08.500Z,4.07
2022-11-28T19:56:15.077Z,4.28
2022-11-28T19:59:18.134Z,3.88
2022-11-28T20:02:21.861Z,5.68
2022-11-28T20:05:24.007Z,5.28
2022-11-28T20:08:27.039Z,4.25
2022-11-28T20:11:35.374Z,4.95
2022-11-28T20:14:39.211Z,3.42
2022-11-28T20:17:42.555Z,4.50
2022-11-28T20:20:45.615Z,4.47
2022-11-28T20:23:53.716Z,3.85
2022-11-28T20:26:57.228Z,4.53
2022-11-28T20:30:01.465Z,4.97
2022-11-28T20:33:03.789Z,4.78
2022-11-28T20:36:09.820Z,4.53
2022-11-28T20:39:13.300Z,4.25
2022-11-28T20:42:20.436Z,5.10
2022-11-28T20:45:23.447Z,5.90
2022-11-28T20:48:26.058Z,5.85
2022-11-28T20:51:30.076Z,5.05
2022-11-28T20:54:32.290Z,4.43
2022-11-28T20:57:34.880Z,4.22
2022-11-28T21:00:36.995Z,5.32
2022-11-28T21:03:39.094Z,4.95
2022-11-28T21:06:42.056Z,5.30
2022-11-28T21:09:44.770Z,4.25
2022-11-28T21:12:46.969Z,4.35
2022-11-28T21:15:50.419Z,5.57
2022-11-28T21:18:53.503Z,3.60
2022-11-28T21:21:55.975Z,4.82
2022-11-28T21:24:58.518Z,4.80
2022-11-28T21:28:00.932Z,6.15
2022-11-28T21:31:09.568Z,4.70
2022-11-28T21:34:14.810Z,5.65
2022-11-28T21:37:17.352Z,3.55
2022-11-28T21:40:19.918Z,5.93
2022-11-28T21:43:22.829Z,5.40
2022-11-28T21:46:27.694Z,6.65
2022-11-28T21:49:30.260Z,4.03
2022-11-28T21:52:32.679Z,6.43
2022-11-28T21:55:37.098Z,3.97
2022-11-28T21:58:39.865Z,3.83
2022-11-28T22:01:42.915Z,5.13
2022-11-28T22:04:45.206Z,4.68
2022-11-28T22:07:47.983Z,3.80
2022-11-28T22:10:50.020Z,3.45
2022-11-28T22:13:53.175Z,4.25
2022-11-28T22:16:55.635Z,3.17
2022-11-28T22:19:58.266Z,3.17
2022-11-28T22:23:00.870Z,3.70
2022-11-28T22:26:04.059Z,3.05
2022-11-28T22:29:06.047Z,4.30
2022-11-28T22:32:08.386Z,3.97
2022-11-28T22:35:10.498Z,3.50
2022-11-28T22:38:13.696Z,3.55
2022-11-28T22:41:23.378Z,4.53
2022-11-28T22:44:29.836Z,4.47
2022-11-28T22:47:33.127Z,3.92
2022-11-28T22:50:40.375Z,4.00
2022-11-28T22:53:42.913Z,5.10
2022-11-28T22:56:44.765Z,3.80
2022-11-28T22:59:47.383Z,4.03
2022-11-28T23:02:49.578Z,3.95
2022-11-28T23:05:51.773Z,3.42
2022-11-28T23:08:53.561Z,3.45
2022-11-28T23:11:55.717Z,4.05
2022-11-28T23:14:57.594Z,3.60
2022-11-28T23:17:59.680Z,3.13
2022-11-28T23:21:01.841Z,4.30
2022-11-28T23:24:04.589Z,4.22
2022-11-28T23:27:07.462Z,3.53
2022-11-28T23:30:09.573Z,3.83
2022-11-28T23:33:12.424Z,3.28
2022-11-28T23:36:14.344Z,3.00
2022-11-28T23:39:20.813Z,4.45
2022-11-28T23:42:22.570Z,4.37
2022-11-28T23:45:24.664Z,3.67
2022-11-28T23:48:26.768Z,4.07
2022-11-28T23:51:28.803Z,3.92
2022-11-28T23:54:31.118Z,3.95
2022-11-28T23:57:32.908Z,3.30
